^^
Meteo Knjazevac Station Historical Data
Daily Summary for January 15, 2022 Units:  Both    English   Metric
Daily Weekly Monthly Yearly Custom
  High: Low: Average:
Temperature: 47.5 °F /  8.6 °C 27.8 °F /  -2.3 °C 38.7 °F /  3.7 °C
Dew Point: 34.8 °F /  1.6 °C 24.1 °F /  -4.4 °C 31.5 °F /  -0.3 °C
Humidity: 86% 54% 76%
Wind Speed: 14mph /  22.5km/h - 5.6mph /  9km/h
Wind Gust: 21mph /  33.8km/h - -
Wind- - WSW
Pressure: 30.39 in /  1029 hPa 30.22 in /  1023.2 hPa -
Precipitation: 0.00 in /  0 mm    
Historical Graphs
 
 
Tabular Data for January 15, 2022
Time Temperature Dew Point Pressure Wind Wind Speed Wind Gust Humidity Rainfall Rate (Hourly) solar Conditions
00:00 36.5 °F /  2.5 °C 32.7 °F /  0.4 °C 30.23in /  1023.6hPa WSW 2mph /  3.2km/h 6mph /  9.7km/h 86% 0.00in /  0mm 0 W/m2
00:10 37 °F /  2.8 °C 33.2 °F /  0.7 °C 30.22in /  1023.2hPa South 5mph /  8km/h 8mph /  12.9km/h 86% 0.00in /  0mm 0 W/m2
00:20 37.6 °F /  3.1 °C 33.8 °F /  1 °C 30.22in /  1023.2hPa SSE 2mph /  3.2km/h 9mph /  14.5km/h 86% 0.00in /  0mm 0 W/m2
00:30 38.1 °F /  3.4 °C 34 °F /  1.1 °C 30.22in /  1023.2hPa South 5mph /  8km/h 9mph /  14.5km/h 85% 0.00in /  0mm 0 W/m2
00:40 39 °F /  3.9 °C 34.6 °F /  1.4 °C 30.22in /  1023.2hPa SSW 3mph /  4.8km/h 9mph /  14.5km/h 84% 0.00in /  0mm 0 W/m2
00:50 39.2 °F /  4 °C 34.8 °F /  1.6 °C 30.22in /  1023.2hPa South 6mph /  9.7km/h 8mph /  12.9km/h 84% 0.00in /  0mm 0 W/m2
01:00 39.2 °F /  4 °C 34.5 °F /  1.4 °C 30.22in /  1023.2hPa SSW 5mph /  8km/h 9mph /  14.5km/h 83% 0.00in /  0mm 0 W/m2
01:10 39.6 °F /  4.2 °C 34.2 °F /  1.2 °C 30.22in /  1023.2hPa SSW 5mph /  8km/h 9mph /  14.5km/h 81% 0.00in /  0mm 0 W/m2
01:20 39.9 °F /  4.4 °C 34.6 °F /  1.4 °C 30.22in /  1023.2hPa SW 6mph /  9.7km/h 9mph /  14.5km/h 81% 0.00in /  0mm 0 W/m2
01:30 39.7 °F /  4.3 °C 34.1 °F /  1.2 °C 30.22in /  1023.2hPa SW 7mph /  11.3km/h 11mph /  17.7km/h 80% 0.00in /  0mm 0 W/m2
01:40 39.7 °F /  4.3 °C 34.1 °F /  1.2 °C 30.22in /  1023.2hPa SSW 6mph /  9.7km/h 11mph /  17.7km/h 80% 0.00in /  0mm 0 W/m2
01:50 39.7 °F /  4.3 °C 34.1 °F /  1.2 °C 30.22in /  1023.2hPa SSW 8mph /  12.9km/h 12mph /  19.3km/h 80% 0.00in /  0mm 0 W/m2
02:00 39.9 °F /  4.4 °C 33.9 °F /  1.1 °C 30.23in /  1023.6hPa SSW 7mph /  11.3km/h 13mph /  20.9km/h 79% 0.00in /  0mm 0 W/m2
02:10 40.1 °F /  4.5 °C 34.1 °F /  1.2 °C 30.23in /  1023.6hPa SSW 5mph /  8km/h 11mph /  17.7km/h 79% 0.00in /  0mm 0 W/m2
02:20 40.1 °F /  4.5 °C 34.1 °F /  1.2 °C 30.23in /  1023.6hPa South 6mph /  9.7km/h 12mph /  19.3km/h 79% 0.00in /  0mm 0 W/m2
02:30 40.1 °F /  4.5 °C 33.8 °F /  1 °C 30.23in /  1023.6hPa SW 5mph /  8km/h 10mph /  16.1km/h 78% 0.00in /  0mm 0 W/m2
02:40 40.1 °F /  4.5 °C 33.8 °F /  1 °C 30.23in /  1023.6hPa SW 5mph /  8km/h 9mph /  14.5km/h 78% 0.00in /  0mm 0 W/m2
02:50 40.1 °F /  4.5 °C 33.8 °F /  1 °C 30.23in /  1023.6hPa SW 7mph /  11.3km/h 12mph /  19.3km/h 78% 0.00in /  0mm 0 W/m2
03:00 40.3 °F /  4.6 °C 33.6 °F /  0.9 °C 30.23in /  1023.6hPa SW 7mph /  11.3km/h 12mph /  19.3km/h 77% 0.00in /  0mm 0 W/m2
03:10 39.9 °F /  4.4 °C 33.6 °F /  0.9 °C 30.24in /  1023.9hPa SW 5mph /  8km/h 8mph /  12.9km/h 78% 0.00in /  0mm 0 W/m2
03:20 39.9 °F /  4.4 °C 33.6 °F /  0.9 °C 30.24in /  1023.9hPa SW 5mph /  8km/h 12mph /  19.3km/h 78% 0.00in /  0mm 0 W/m2
03:30 40.1 °F /  4.5 °C 33.8 °F /  1 °C 30.24in /  1023.9hPa WSW 3mph /  4.8km/h 12mph /  19.3km/h 78% 0.00in /  0mm 0 W/m2
03:40 40.1 °F /  4.5 °C 33.8 °F /  1 °C 30.24in /  1023.9hPa WSW 3mph /  4.8km/h 7mph /  11.3km/h 78% 0.00in /  0mm 0 W/m2
03:50 40.1 °F /  4.5 °C 33.8 °F /  1 °C 30.24in /  1023.9hPa WSW 6mph /  9.7km/h 9mph /  14.5km/h 78% 0.00in /  0mm 0 W/m2
04:00 40.1 °F /  4.5 °C 33.8 °F /  1 °C 30.25in /  1024.3hPa SW 5mph /  8km/h 11mph /  17.7km/h 78% 0.00in /  0mm 0 W/m2
04:10 40.1 °F /  4.5 °C 33.8 °F /  1 °C 30.25in /  1024.3hPa SW 7mph /  11.3km/h 10mph /  16.1km/h 78% 0.00in /  0mm 0 W/m2
04:20 40.1 °F /  4.5 °C 33.8 °F /  1 °C 30.25in /  1024.3hPa SW 7mph /  11.3km/h 11mph /  17.7km/h 78% 0.00in /  0mm 0 W/m2
04:30 39.9 °F /  4.4 °C 33.9 °F /  1.1 °C 30.25in /  1024.3hPa WSW 7mph /  11.3km/h 10mph /  16.1km/h 79% 0.00in /  0mm 0 W/m2
04:40 39.7 °F /  4.3 °C 33.8 °F /  1 °C 30.25in /  1024.3hPa SW 10mph /  16.1km/h 15mph /  24.1km/h 79% 0.00in /  0mm 0 W/m2
04:50 39.7 °F /  4.3 °C 33.8 °F /  1 °C 30.25in /  1024.3hPa SW 14mph /  22.5km/h 21mph /  33.8km/h 79% 0.00in /  0mm 0 W/m2
05:00 39.6 °F /  4.2 °C 33.9 °F /  1.1 °C 30.25in /  1024.3hPa WSW 8mph /  12.9km/h 16mph /  25.7km/h 80% 0.00in /  0mm 0 W/m2
05:10 39.6 °F /  4.2 °C 33.9 °F /  1.1 °C 30.26in /  1024.6hPa WSW 8mph /  12.9km/h 13mph /  20.9km/h 80% 0.00in /  0mm 0 W/m2
05:20 39.4 °F /  4.1 °C 33.7 °F /  0.9 °C 30.26in /  1024.6hPa WSW 6mph /  9.7km/h 13mph /  20.9km/h 80% 0.00in /  0mm 0 W/m2
05:30 39.2 °F /  4 °C 33.5 °F /  0.8 °C 30.26in /  1024.6hPa WSW 7mph /  11.3km/h 13mph /  20.9km/h 80% 0.00in /  0mm 0 W/m2
05:40 39.2 °F /  4 °C 33.9 °F /  1.1 °C 30.26in /  1024.6hPa WSW 8mph /  12.9km/h 15mph /  24.1km/h 81% 0.00in /  0mm 0 W/m2
05:50 39 °F /  3.9 °C 33.7 °F /  0.9 °C 30.26in /  1024.6hPa WSW 8mph /  12.9km/h 15mph /  24.1km/h 81% 0.00in /  0mm 0 W/m2
06:00 38.8 °F /  3.8 °C 33.5 °F /  0.8 °C 30.26in /  1024.6hPa WSW 3mph /  4.8km/h 15mph /  24.1km/h 81% 0.00in /  0mm 0 W/m2
06:10 38.5 °F /  3.6 °C 33.2 °F /  0.7 °C 30.26in /  1024.6hPa West 6mph /  9.7km/h 11mph /  17.7km/h 81% 0.00in /  0mm 0 W/m2
06:20 38.3 °F /  3.5 °C 33.6 °F /  0.9 °C 30.27in /  1024.9hPa WSW 3mph /  4.8km/h 10mph /  16.1km/h 83% 0.00in /  0mm 0 W/m2
06:30 37.9 °F /  3.3 °C 33.2 °F /  0.7 °C 30.27in /  1024.9hPa West 2mph /  3.2km/h 5mph /  8km/h 83% 0.00in /  0mm 0 W/m2
06:40 37.8 °F /  3.2 °C 33.1 °F /  0.6 °C 30.27in /  1024.9hPa West 8mph /  12.9km/h 16mph /  25.7km/h 83% 0.00in /  0mm 0 W/m2
06:50 37.9 °F /  3.3 °C 33.2 °F /  0.7 °C 30.27in /  1024.9hPa West 9mph /  14.5km/h 17mph /  27.4km/h 83% 0.00in /  0mm 0 W/m2
07:00 37.8 °F /  3.2 °C 33.4 °F /  0.8 °C 30.28in /  1025.3hPa West 10mph /  16.1km/h 20mph /  32.2km/h 84% 0.00in /  0mm 0 W/m2
07:10 37.6 °F /  3.1 °C 33.2 °F /  0.7 °C 30.28in /  1025.3hPa West 12mph /  19.3km/h 20mph /  32.2km/h 84% 0.00in /  0mm 9 W/m2
07:20 37.4 °F /  3 °C 33 °F /  0.6 °C 30.28in /  1025.3hPa West 12mph /  19.3km/h 17mph /  27.4km/h 84% 0.00in /  0mm 11 W/m2
07:30 37.2 °F /  2.9 °C 33.1 °F /  0.6 °C 30.29in /  1025.6hPa West 12mph /  19.3km/h 18mph /  29km/h 85% 0.00in /  0mm 25 W/m2
07:40 37.2 °F /  2.9 °C 33.1 °F /  0.6 °C 30.29in /  1025.6hPa West 12mph /  19.3km/h 18mph /  29km/h 85% 0.00in /  0mm 40 W/m2
07:50 37.2 °F /  2.9 °C 33.1 °F /  0.6 °C 30.30in /  1026hPa West 12mph /  19.3km/h 18mph /  29km/h 85% 0.00in /  0mm 57 W/m2
08:00 37.4 °F /  3 °C 33 °F /  0.6 °C 30.29in /  1025.6hPa West 10mph /  16.1km/h 18mph /  29km/h 84% 0.00in /  0mm 76 W/m2
08:10 37.8 °F /  3.2 °C 33.4 °F /  0.8 °C 30.30in /  1026hPa West 8mph /  12.9km/h 17mph /  27.4km/h 84% 0.00in /  0mm 98 W/m2
08:20 38.1 °F /  3.4 °C 33.4 °F /  0.8 °C 30.30in /  1026hPa West 10mph /  16.1km/h 16mph /  25.7km/h 83% 0.00in /  0mm 121 W/m2
08:30 38.7 °F /  3.7 °C 33.9 °F /  1.1 °C 30.30in /  1026hPa WSW 7mph /  11.3km/h 15mph /  24.1km/h 83% 0.00in /  0mm 141 W/m2
08:40 39 °F /  3.9 °C 33.7 °F /  0.9 °C 30.30in /  1026hPa WSW 10mph /  16.1km/h 17mph /  27.4km/h 81% 0.00in /  0mm 161 W/m2
08:50 39.2 °F /  4 °C 33.9 °F /  1.1 °C 30.30in /  1026hPa West 9mph /  14.5km/h 15mph /  24.1km/h 81% 0.00in /  0mm 181 W/m2
09:00 39.6 °F /  4.2 °C 33.9 °F /  1.1 °C 30.30in /  1026hPa West 10mph /  16.1km/h 17mph /  27.4km/h 80% 0.00in /  0mm 200 W/m2
09:10 39.9 °F /  4.4 °C 34.2 °F /  1.2 °C 30.31in /  1026.3hPa West 9mph /  14.5km/h 15mph /  24.1km/h 80% 0.00in /  0mm 219 W/m2
09:20 40.1 °F /  4.5 °C 34.1 °F /  1.2 °C 30.31in /  1026.3hPa West 9mph /  14.5km/h 16mph /  25.7km/h 79% 0.00in /  0mm 236 W/m2
09:30 40.6 °F /  4.8 °C 34.6 °F /  1.4 °C 30.31in /  1026.3hPa West 10mph /  16.1km/h 17mph /  27.4km/h 79% 0.00in /  0mm 253 W/m2
09:40 41 °F /  5 °C 34.7 °F /  1.5 °C 30.32in /  1026.6hPa West 7mph /  11.3km/h 15mph /  24.1km/h 78% 0.00in /  0mm 269 W/m2
09:50 41.4 °F /  5.2 °C 34.7 °F /  1.5 °C 30.32in /  1026.6hPa West 7mph /  11.3km/h 14mph /  22.5km/h 77% 0.00in /  0mm 284 W/m2
10:00 41.8 °F /  5.4 °C 34.4 °F /  1.3 °C 30.32in /  1026.6hPa WNW 7mph /  11.3km/h 17mph /  27.4km/h 75% 0.00in /  0mm 298 W/m2
10:10 42.3 °F /  5.7 °C 34.6 °F /  1.4 °C 30.32in /  1026.6hPa West 7mph /  11.3km/h 13mph /  20.9km/h 74% 0.00in /  0mm 311 W/m2
10:20 42.8 °F /  6 °C 34.7 °F /  1.5 °C 30.32in /  1026.6hPa WNW 9mph /  14.5km/h 14mph /  22.5km/h 73% 0.00in /  0mm 322 W/m2
10:30 43 °F /  6.1 °C 34.6 °F /  1.4 °C 30.32in /  1026.6hPa West 8mph /  12.9km/h 14mph /  22.5km/h 72% 0.00in /  0mm 332 W/m2
10:40 43.7 °F /  6.5 °C 34.6 °F /  1.4 °C 30.32in /  1026.6hPa West 6mph /  9.7km/h 12mph /  19.3km/h 70% 0.00in /  0mm 341 W/m2
10:50 44.1 °F /  6.7 °C 34.5 °F /  1.4 °C 30.31in /  1026.3hPa WNW 7mph /  11.3km/h 12mph /  19.3km/h 69% 0.00in /  0mm 349 W/m2
11:00 44.4 °F /  6.9 °C 34.5 °F /  1.4 °C 30.31in /  1026.3hPa West 7mph /  11.3km/h 12mph /  19.3km/h 68% 0.00in /  0mm 355 W/m2
11:10 44.8 °F /  7.1 °C 34.5 °F /  1.4 °C 30.31in /  1026.3hPa West 9mph /  14.5km/h 12mph /  19.3km/h 67% 0.00in /  0mm 359 W/m2
11:20 45 °F /  7.2 °C 33.9 °F /  1.1 °C 30.31in /  1026.3hPa West 6mph /  9.7km/h 14mph /  22.5km/h 65% 0.00in /  0mm 363 W/m2
11:30 45.1 °F /  7.3 °C 34.1 °F /  1.2 °C 30.31in /  1026.3hPa West 7mph /  11.3km/h 12mph /  19.3km/h 65% 0.00in /  0mm 364 W/m2
11:40 45.3 °F /  7.4 °C 33.9 °F /  1.1 °C 30.31in /  1026.3hPa West 7mph /  11.3km/h 12mph /  19.3km/h 64% 0.00in /  0mm 365 W/m2
11:50 45.5 °F /  7.5 °C 33.7 °F /  0.9 °C 30.30in /  1026hPa West 7mph /  11.3km/h 12mph /  19.3km/h 63% 0.00in /  0mm 363 W/m2
12:00 46 °F /  7.8 °C 34.1 °F /  1.2 °C 30.30in /  1026hPa West 5mph /  8km/h 11mph /  17.7km/h 63% 0.00in /  0mm 361 W/m2
12:10 46.2 °F /  7.9 °C 33.9 °F /  1.1 °C 30.30in /  1026hPa West 7mph /  11.3km/h 12mph /  19.3km/h 62% 0.00in /  0mm 357 W/m2
12:20 46.4 °F /  8 °C 33.3 °F /  0.7 °C 30.30in /  1026hPa West 7mph /  11.3km/h 13mph /  20.9km/h 60% 0.00in /  0mm 351 W/m2
12:30 46.4 °F /  8 °C 32.8 °F /  0.4 °C 30.30in /  1026hPa West 6mph /  9.7km/h 12mph /  19.3km/h 59% 0.00in /  0mm 345 W/m2
12:40 46.8 °F /  8.2 °C 32.8 °F /  0.4 °C 30.30in /  1026hPa West 8mph /  12.9km/h 12mph /  19.3km/h 58% 0.00in /  0mm 336 W/m2
12:50 46.9 °F /  8.3 °C 32.9 °F /  0.5 °C 30.30in /  1026hPa West 7mph /  11.3km/h 12mph /  19.3km/h 58% 0.00in /  0mm 327 W/m2
13:00 47.1 °F /  8.4 °C 32.7 °F /  0.4 °C 30.30in /  1026hPa West 7mph /  11.3km/h 11mph /  17.7km/h 57% 0.00in /  0mm 316 W/m2
13:10 47.5 °F /  8.6 °C 33 °F /  0.6 °C 30.30in /  1026hPa West 5mph /  8km/h 10mph /  16.1km/h 57% 0.00in /  0mm 304 W/m2
13:20 47.5 °F /  8.6 °C 33.4 °F /  0.8 °C 30.30in /  1026hPa West 6mph /  9.7km/h 11mph /  17.7km/h 58% 0.00in /  0mm 290 W/m2
13:30 47.4 °F /  8.6 °C 32.1 °F /  0.1 °C 30.30in /  1026hPa West 7mph /  11.3km/h 13mph /  20.9km/h 55% 0.00in /  0mm 276 W/m2
13:40 47.3 °F /  8.5 °C 31.9 °F /  -0.1 °C 30.29in /  1025.6hPa WSW 6mph /  9.7km/h 11mph /  17.7km/h 55% 0.00in /  0mm 260 W/m2
13:50 47.3 °F /  8.5 °C 31.9 °F /  -0.1 °C 30.29in /  1025.6hPa West 6mph /  9.7km/h 11mph /  17.7km/h 55% 0.00in /  0mm 244 W/m2
14:00 47.3 °F /  8.5 °C 31.5 °F /  -0.3 °C 30.29in /  1025.6hPa West 7mph /  11.3km/h 10mph /  16.1km/h 54% 0.00in /  0mm 227 W/m2
14:10 47.1 °F /  8.4 °C 31.3 °F /  -0.4 °C 30.29in /  1025.6hPa West 7mph /  11.3km/h 12mph /  19.3km/h 54% 0.00in /  0mm 208 W/m2
14:20 46.9 °F /  8.3 °C 32 °F /  0 °C 30.29in /  1025.6hPa West 7mph /  11.3km/h 10mph /  16.1km/h 56% 0.00in /  0mm 189 W/m2
14:30 46.8 °F /  8.2 °C 31.4 °F /  -0.3 °C 30.29in /  1025.6hPa West 5mph /  8km/h 10mph /  16.1km/h 55% 0.00in /  0mm 170 W/m2
14:40 46.6 °F /  8.1 °C 30.8 °F /  -0.7 °C 30.29in /  1025.6hPa West 5mph /  8km/h 10mph /  16.1km/h 54% 0.00in /  0mm 150 W/m2
14:50 46.4 °F /  8 °C 31.5 °F /  -0.3 °C 30.29in /  1025.6hPa WSW 7mph /  11.3km/h 12mph /  19.3km/h 56% 0.00in /  0mm 130 W/m2
15:00 45.5 °F /  7.5 °C 33.6 °F /  0.9 °C 30.29in /  1025.6hPa WSW 7mph /  11.3km/h 12mph /  19.3km/h 63% 0.00in /  0mm 109 W/m2
15:10 44.9 °F /  7.2 °C 33.8 °F /  1 °C 30.30in /  1026hPa SW 9mph /  14.5km/h 12mph /  19.3km/h 65% 0.00in /  0mm 89 W/m2
15:20 44.2 °F /  6.8 °C 33.2 °F /  0.7 °C 30.30in /  1026hPa SW 7mph /  11.3km/h 11mph /  17.7km/h 65% 0.00in /  0mm 70 W/m2
15:30 43.7 °F /  6.5 °C 33.5 °F /  0.8 °C 30.31in /  1026.3hPa WSW 7mph /  11.3km/h 12mph /  19.3km/h 67% 0.00in /  0mm 51 W/m2
15:40 43.2 °F /  6.2 °C 33.3 °F /  0.7 °C 30.31in /  1026.3hPa WSW 7mph /  11.3km/h 10mph /  16.1km/h 68% 0.00in /  0mm 33 W/m2
15:50 42.4 °F /  5.8 °C 33 °F /  0.6 °C 30.31in /  1026.3hPa WSW 8mph /  12.9km/h 12mph /  19.3km/h 69% 0.00in /  0mm 17 W/m2
16:00 41.8 °F /  5.4 °C 32.8 °F /  0.4 °C 30.31in /  1026.3hPa WSW 6mph /  9.7km/h 12mph /  19.3km/h 70% 0.00in /  0mm 3 W/m2
16:10 41.1 °F /  5.1 °C 32.1 °F /  0.1 °C 30.31in /  1026.3hPa SW 6mph /  9.7km/h 10mph /  16.1km/h 70% 0.00in /  0mm 12 W/m2
16:20 40.5 °F /  4.7 °C 31.4 °F /  -0.3 °C 30.32in /  1026.6hPa WSW 6mph /  9.7km/h 10mph /  16.1km/h 70% 0.00in /  0mm 0 W/m2
16:30 39.7 °F /  4.3 °C 30.3 °F /  -0.9 °C 30.32in /  1026.6hPa WSW 8mph /  12.9km/h 13mph /  20.9km/h 69% 0.00in /  0mm 0 W/m2
16:40 39.1 °F /  3.9 °C 30.2 °F /  -1 °C 30.32in /  1026.6hPa WSW 6mph /  9.7km/h 12mph /  19.3km/h 70% 0.00in /  0mm 0 W/m2
16:50 38.5 °F /  3.6 °C 29.5 °F /  -1.4 °C 30.33in /  1027hPa WSW 8mph /  12.9km/h 12mph /  19.3km/h 70% 0.00in /  0mm 0 W/m2
17:00 38.1 °F /  3.4 °C 29.1 °F /  -1.6 °C 30.33in /  1027hPa WSW 8mph /  12.9km/h 16mph /  25.7km/h 70% 0.00in /  0mm 0 W/m2
17:10 37.6 °F /  3.1 °C 29.4 °F /  -1.4 °C 30.33in /  1027hPa WSW 7mph /  11.3km/h 13mph /  20.9km/h 72% 0.00in /  0mm 0 W/m2
17:20 37.2 °F /  2.9 °C 29.4 °F /  -1.4 °C 30.33in /  1027hPa WSW 6mph /  9.7km/h 10mph /  16.1km/h 73% 0.00in /  0mm 0 W/m2
17:30 36.9 °F /  2.7 °C 29 °F /  -1.7 °C 30.33in /  1027hPa WSW 7mph /  11.3km/h 12mph /  19.3km/h 73% 0.00in /  0mm 0 W/m2
17:40 36.5 °F /  2.5 °C 29 °F /  -1.7 °C 30.33in /  1027hPa WSW 8mph /  12.9km/h 13mph /  20.9km/h 74% 0.00in /  0mm 0 W/m2
17:50 36.1 °F /  2.3 °C 29 °F /  -1.7 °C 30.33in /  1027hPa West 7mph /  11.3km/h 12mph /  19.3km/h 75% 0.00in /  0mm 0 W/m2
18:00 35.8 °F /  2.1 °C 28.6 °F /  -1.9 °C 30.34in /  1027.3hPa WSW 2mph /  3.2km/h 8mph /  12.9km/h 75% 0.00in /  0mm 0 W/m2
18:10 35.4 °F /  1.9 °C 28.2 °F /  -2.1 °C 30.34in /  1027.3hPa SW 3mph /  4.8km/h 5mph /  8km/h 75% 0.00in /  0mm 0 W/m2
18:20 34.8 °F /  1.6 °C 28.3 °F /  -2.1 °C 30.34in /  1027.3hPa SW 2mph /  3.2km/h 6mph /  9.7km/h 77% 0.00in /  0mm 0 W/m2
18:30 34.3 °F /  1.3 °C 27.8 °F /  -2.3 °C 30.34in /  1027.3hPa SSW 2mph /  3.2km/h 5mph /  8km/h 77% 0.00in /  0mm 0 W/m2
18:40 33.6 °F /  0.9 °C 27.5 °F /  -2.5 °C 30.34in /  1027.3hPa South 2mph /  3.2km/h 5mph /  8km/h 78% 0.00in /  0mm 0 W/m2
18:50 33.3 °F /  0.7 °C 27.5 °F /  -2.5 °C 30.34in /  1027.3hPa SSW 2mph /  3.2km/h 5mph /  8km/h 79% 0.00in /  0mm 0 W/m2
19:00 32.7 °F /  0.4 °C 27.2 °F /  -2.7 °C 30.35in /  1027.7hPa SE 1mph /  1.6km/h 6mph /  9.7km/h 80% 0.00in /  0mm 0 W/m2
19:10 32.4 °F /  0.2 °C 26.9 °F /  -2.8 °C 30.35in /  1027.7hPa Calm   3mph /  4.8km/h 80% 0.00in /  0mm 0 W/m2
19:20 32 °F /  0 °C 26.5 °F /  -3.1 °C 30.35in /  1027.7hPa NW 1mph /  1.6km/h 2mph /  3.2km/h 80% 0.00in /  0mm 0 W/m2
19:30 31.6 °F /  -0.2 °C 26.2 °F /  -3.2 °C 30.35in /  1027.7hPa Calm   3mph /  4.8km/h 80% 0.00in /  0mm 0 W/m2
19:40 31.3 °F /  -0.4 °C 26.1 °F /  -3.3 °C 30.35in /  1027.7hPa Calm   2mph /  3.2km/h 81% 0.00in /  0mm 0 W/m2
19:50 30.9 °F /  -0.6 °C 25.8 °F /  -3.4 °C 30.35in /  1027.7hPa Calm   5mph /  8km/h 81% 0.00in /  0mm 0 W/m2
20:00 30.6 °F /  -0.8 °C 26 °F /  -3.3 °C 30.35in /  1027.7hPa Calm   3mph /  4.8km/h 83% 0.00in /  0mm 0 W/m2
20:10 30.4 °F /  -0.9 °C 25.8 °F /  -3.4 °C 30.35in /  1027.7hPa North 2mph /  3.2km/h 2mph /  3.2km/h 83% 0.00in /  0mm 0 W/m2
20:20 30 °F /  -1.1 °C 25.5 °F /  -3.6 °C 30.35in /  1027.7hPa North 1mph /  1.6km/h 3mph /  4.8km/h 83% 0.00in /  0mm 0 W/m2
20:30 29.8 °F /  -1.2 °C 25.3 °F /  -3.7 °C 30.36in /  1028hPa Calm   2mph /  3.2km/h 83% 0.00in /  0mm 0 W/m2
20:40 29.7 °F /  -1.3 °C 25.4 °F /  -3.7 °C 30.37in /  1028.3hPa Calm   4mph /  6.4km/h 84% 0.00in /  0mm 0 W/m2
20:50 29.7 °F /  -1.3 °C 25.4 °F /  -3.7 °C 30.39in /  1029hPa Calm   4mph /  6.4km/h 84% 0.00in /  0mm 0 W/m2
21:00 29.3 °F /  -1.5 °C 25.1 °F /  -3.8 °C 30.36in /  1028hPa South 1mph /  1.6km/h 5mph /  8km/h 84% 0.00in /  0mm 0 W/m2
21:10 28.9 °F /  -1.7 °C 24.7 °F /  -4.1 °C 30.35in /  1027.7hPa SW 1mph /  1.6km/h 3mph /  4.8km/h 84% 0.00in /  0mm 0 W/m2
21:20 28.9 °F /  -1.7 °C 25 °F /  -3.9 °C 30.37in /  1028.3hPa SE 1mph /  1.6km/h 6mph /  9.7km/h 85% 0.00in /  0mm 0 W/m2
21:30 28.9 °F /  -1.7 °C 25 °F /  -3.9 °C 30.35in /  1027.7hPa SSW 2mph /  3.2km/h 4mph /  6.4km/h 85% 0.00in /  0mm 0 W/m2
21:40 28.8 °F /  -1.8 °C 24.8 °F /  -4 °C 30.34in /  1027.3hPa South 2mph /  3.2km/h 6mph /  9.7km/h 85% 0.00in /  0mm 0 W/m2
21:50 28.6 °F /  -1.9 °C 24.6 °F /  -4.1 °C 30.37in /  1028.3hPa North 1mph /  1.6km/h 3mph /  4.8km/h 85% 0.00in /  0mm 0 W/m2
22:00 28.4 °F /  -2 °C 24.5 °F /  -4.2 °C 30.36in /  1028hPa NW 1mph /  1.6km/h 3mph /  4.8km/h 85% 0.00in /  0mm 0 W/m2
22:10 28.2 °F /  -2.1 °C 24.3 °F /  -4.3 °C 30.35in /  1027.7hPa Calm   3mph /  4.8km/h 85% 0.00in /  0mm 0 W/m2
22:20 28.2 °F /  -2.1 °C 24.3 °F /  -4.3 °C 30.36in /  1028hPa SSE 1mph /  1.6km/h 5mph /  8km/h 85% 0.00in /  0mm 0 W/m2
22:30 28 °F /  -2.2 °C 24.1 °F /  -4.4 °C 30.36in /  1028hPa Calm   3mph /  4.8km/h 85% 0.00in /  0mm 0 W/m2
22:40 28.1 °F /  -2.2 °C 24.5 °F /  -4.2 °C 30.37in /  1028.3hPa SSE 1mph /  1.6km/h 6mph /  9.7km/h 86% 0.00in /  0mm 0 W/m2
22:50 28.2 °F /  -2.1 °C 24.6 °F /  -4.1 °C 30.38in /  1028.7hPa SE 1mph /  1.6km/h 5mph /  8km/h 86% 0.00in /  0mm 0 W/m2
23:00 28 °F /  -2.2 °C 24.4 °F /  -4.2 °C 30.38in /  1028.7hPa WNW 1mph /  1.6km/h 2mph /  3.2km/h 86% 0.00in /  0mm 0 W/m2
23:10 27.8 °F /  -2.3 °C 24.1 °F /  -4.4 °C 30.37in /  1028.3hPa Calm   3mph /  4.8km/h 86% 0.00in /  0mm 0 W/m2
Knjazevac, Serbia
Compliments of Weather Underground - 2 mb